• Join FlightAware (Why Join?)
  • Login
  • US Flag 
09:38PM EST


 

Airport Tracker/Info


-or-


 

Live Flight TrackerFlight Track Log ✈ N210VJ ✈ 13-May-2013 ✈ KPBI - KGNV

Flight Track Log - Related Links

Times and Time Zones

All times are in EDT time to prevent confusion due to time zone crossing. See the N210VJ flight status page for this flight to view local times or setup timezone preferences in your user account.

Time Position Orientation Groundspeed Altitude Reporting Facility
EDT Latitude Longitude Course Direction KTS MPH feet Rate Location/Type
11:23AM 27.1108 -80.4831 328° Northwest 127 146 5,100  Level Miami Center
11:24AM 27.1375 -80.5072 321° Northwest 121 139 5,300 180 Climbing Miami Center
11:25AM 27.1600 -80.5264 323° Northwest 115 132 5,500 180 Climbing Miami Center
11:26AM 27.1867 -80.5483 324° Northwest 110 127 5,700 180 Climbing Miami Center
11:27AM 27.2111 -80.5700 322° Northwest 110 127 5,900 120 Climbing Miami Center
11:28AM 27.2356 -80.5897 324° Northwest 110 127 6,000 120 Climbing Miami Center
11:29AM 26.6876 -80.0987 328° Northwest  Level Estimated
11:29AM 27.2561 -80.6089 320° Northwest 110 127 6,200  Level Miami Center
11:30AM 27.2783 -80.6283 322° Northwest 105 121 6,400 180 Climbing Miami Center
11:31AM 27.3031 -80.6503 322° Northwest 110 127 6,600 60 Climbing Miami Center
11:32AM 27.3294 -80.6722 324° Northwest 110 127 6,600  Level Miami Center
11:33AM 27.3581 -80.6964 323° Northwest 116 133 6,600  Level Miami Center
11:34AM 27.3825 -80.7183 321° Northwest 121 139 6,600  Level Miami Center
11:36AM 27.4131 -80.7450 322° Northwest 126 145 6,600  Level Miami Center
11:37AM 27.4500 -80.7767 323° Northwest 131 151 6,600  Level Miami Center
11:38AM 27.4783 -80.8033 320° Northwest 136 157 6,600  Level Miami Center
11:39AM 27.5069 -80.8303 320° Northwest 136 157 6,600  Level Miami Center
11:40AM 27.5394 -80.8569 324° Northwest 136 157 6,600  Level Miami Center
11:41AM 27.5681 -80.8839 320° Northwest 136 157 6,600  Level Miami Center
11:42AM 27.6028 -80.9108 325° Northwest 131 151 6,600  Level Miami Center
11:43AM 27.6333 -80.9375 322° Northwest 136 157 6,600  Level Miami Center
11:44AM 27.6597 -80.9619 321° Northwest 136 157 6,600  Level Miami Center
11:45AM 27.6903 -80.9867 324° Northwest 131 151 6,600  Level Miami Center
11:46AM 27.7208 -81.0158 320° Northwest 131 151 6,600  Level Miami Center
11:47AM 27.7514 -81.0428 322° Northwest 131 151 6,600  Level Miami Center
11:48AM 27.7819 -81.0672 325° Northwest 131 151 6,600  Level Miami Center
11:49AM 27.8106 -81.0894 326° Northwest 141 162 6,600  Level Miami Center
11:50AM 27.8389 -81.1164 320° Northwest 134 154 6,600  Level Miami Center
11:51AM 27.8672 -81.1433 320° Northwest 134 154 6,600  Level Miami Center
11:52AM 27.8978 -81.1703 322° Northwest 134 154 6,600  Level Miami Center
11:53AM 27.9283 -81.1972 322° Northwest 134 154 6,600  Level Miami Center
11:54AM 27.9608 -81.2267 321° Northwest 134 154 6,600  Level Miami Center
11:54AM 27.9833 -81.2500 318° Northwest 139 160 6,600  Level Orlando TRACON
11:56AM 28.0333 -81.2833 330° Northwest 141 162 6,600  Level Orlando TRACON
11:57AM 28.0667 -81.3167 319° Northwest 143 165 6,600  Level Orlando TRACON
11:58AM 28.1000 -81.3333 336° Northwest 143 165 6,600  Level Orlando TRACON
11:59AM 28.1333 -81.3667 319° Northwest 142 163 6,600  Level Orlando TRACON
12:00PM 28.1667 -81.4000 319° Northwest 141 162 6,600  Level Orlando TRACON
12:01PM 28.1833 -81.4333 300° West 144 166 6,600  Level Orlando TRACON
12:02PM 28.2167 -81.4500 336° Northwest 143 165 6,600  Level Orlando TRACON
12:03PM 28.2500 -81.4833 319° Northwest 145 167 6,600  Level Orlando TRACON
12:04PM 28.2833 -81.5000 336° Northwest 141 162 6,600  Level Orlando TRACON
12:05PM 28.3167 -81.5333 319° Northwest 141 162 6,600  Level Orlando TRACON
12:06PM 28.3500 -81.5667 319° Northwest 140 161 6,600  Level Orlando TRACON
12:07PM 28.3667 -81.5833 319° Northwest 139 160 6,600  Level Orlando TRACON
12:08PM 28.4000 -81.6167 319° Northwest 139 160 6,600  Level Orlando TRACON
12:09PM 28.4333 -81.6500 319° Northwest 140 161 6,600  Level Orlando TRACON
12:10PM 28.4667 -81.6667 336° Northwest 139 160 6,600  Level Orlando TRACON
12:11PM 28.5000 -81.7000 319° Northwest 138 159 6,600  Level Orlando TRACON
12:12PM 28.5333 -81.7333 319° Northwest 136 157 6,600  Level Orlando TRACON
12:13PM 28.5667 -81.7500 336° Northwest 139 160 6,600  Level Orlando TRACON
12:14PM 28.5833 -81.7833 300° West 139 160 6,600  Level Orlando TRACON
12:15PM 28.6167 -81.8000 336° Northwest 139 160 6,600  Level Orlando TRACON
12:17PM 28.6886 -81.8750 318° Northwest 140 161 6,600  Level Jacksonville Center
12:18PM 28.7178 -81.9006 322° Northwest 140 161 6,600  Level Jacksonville Center
12:19PM 28.7494 -81.9311 320° Northwest 140 161 6,600  Level Jacksonville Center
12:20PM 28.7789 -81.9569 322° Northwest 140 161 6,600 -180 Level Jacksonville Center
12:21PM 28.8144 -81.9872 323° Northwest 147 169 6,300 -300 Descending Jacksonville Center
12:22PM 28.8481 -82.0178 321° Northwest 153 176 6,000 -360 Descending Jacksonville Center
12:23PM 28.8797 -82.0461 322° Northwest 153 176 5,700 -420 Descending Jacksonville Center
12:24PM 28.9111 -82.0742 322° Northwest 152 175 5,300 -420 Descending Jacksonville Center
12:25PM 28.9447 -82.1072 319° Northwest 151 174 4,900 -360 Descending Jacksonville Center
12:26PM 28.9761 -82.1356 322° Northwest 149 171 4,600 -420 Descending Jacksonville Center
12:27PM 29.0097 -82.1636 324° Northwest 143 165 4,200 -360 Descending Jacksonville Center
12:28PM 29.0414 -82.1967 318° Northwest 139 160 3,900 -240 Descending Jacksonville Center
12:29PM 29.0664 -82.2275 313° West 136 157 3,700 -240 Descending Jacksonville Center
12:31PM 29.1000 -82.2653 316° Northwest 135 155 3,400 -180 Descending Jacksonville Center
12:32PM 29.1231 -82.2958 311° West 130 150 3,400  Level Jacksonville Center
12:33PM 29.1525 -82.3194 325° Northwest 125 144 3,400  Level Jacksonville Center